sensor_id;sensor_type;location;lat;lon;timestamp;P1;durP1;ratioP1;P2;durP2;ratioP2
41755;SDS011;27435;48.480;9.258;2022-12-20T00:00:04;27.87;;;13.60;;
41755;SDS011;27435;48.480;9.258;2022-12-20T00:02:30;24.73;;;13.50;;
41755;SDS011;27435;48.480;9.258;2022-12-20T00:04:56;25.40;;;13.57;;
41755;SDS011;27435;48.480;9.258;2022-12-20T00:07:21;26.30;;;14.20;;
41755;SDS011;27435;48.480;9.258;2022-12-20T00:09:47;27.03;;;12.80;;
41755;SDS011;27435;48.480;9.258;2022-12-20T00:12:12;26.00;;;13.17;;
41755;SDS011;27435;48.480;9.258;2022-12-20T00:14:38;24.90;;;13.40;;
41755;SDS011;27435;48.480;9.258;2022-12-20T00:17:04;26.87;;;13.57;;
41755;SDS011;27435;48.480;9.258;2022-12-20T00:19:29;24.50;;;13.40;;
41755;SDS011;27435;48.480;9.258;2022-12-20T00:21:55;28.73;;;15.23;;
41755;SDS011;27435;48.480;9.258;2022-12-20T00:24:20;27.87;;;13.17;;
41755;SDS011;27435;48.480;9.258;2022-12-20T00:26:46;24.70;;;12.63;;
41755;SDS011;27435;48.480;9.258;2022-12-20T00:29:11;25.43;;;12.67;;
41755;SDS011;27435;48.480;9.258;2022-12-20T00:31:37;26.73;;;13.97;;
41755;SDS011;27435;48.480;9.258;2022-12-20T00:34:03;35.67;;;17.20;;
41755;SDS011;27435;48.480;9.258;2022-12-20T00:36:30;29.30;;;14.47;;
41755;SDS011;27435;48.480;9.258;2022-12-20T00:38:57;25.73;;;14.33;;
41755;SDS011;27435;48.480;9.258;2022-12-20T00:41:25;29.27;;;12.97;;
41755;SDS011;27435;48.480;9.258;2022-12-20T00:43:52;26.00;;;14.20;;
41755;SDS011;27435;48.480;9.258;2022-12-20T00:46:18;28.60;;;12.97;;
41755;SDS011;27435;48.480;9.258;2022-12-20T00:48:45;24.17;;;12.87;;
41755;SDS011;27435;48.480;9.258;2022-12-20T00:51:15;22.23;;;12.00;;
41755;SDS011;27435;48.480;9.258;2022-12-20T00:53:42;23.40;;;11.93;;
41755;SDS011;27435;48.480;9.258;2022-12-20T00:56:08;23.60;;;11.30;;
41755;SDS011;27435;48.480;9.258;2022-12-20T00:58:35;23.43;;;11.53;;
41755;SDS011;27435;48.480;9.258;2022-12-20T01:01:03;22.50;;;11.03;;
41755;SDS011;27435;48.480;9.258;2022-12-20T01:03:30;18.00;;;9.47;;
41755;SDS011;27435;48.480;9.258;2022-12-20T01:05:57;16.43;;;8.77;;
41755;SDS011;27435;48.480;9.258;2022-12-20T01:08:25;15.80;;;8.03;;
41755;SDS011;27435;48.480;9.258;2022-12-20T01:11:03;14.67;;;8.17;;
41755;SDS011;27435;48.480;9.258;2022-12-20T01:13:31;13.67;;;8.03;;
41755;SDS011;27435;48.480;9.258;2022-12-20T01:16:08;20.03;;;9.43;;
41755;SDS011;27435;48.480;9.258;2022-12-20T01:18:50;19.50;;;9.37;;
41755;SDS011;27435;48.480;9.258;2022-12-20T01:21:17;20.40;;;10.17;;
41755;SDS011;27435;48.480;9.258;2022-12-20T01:23:43;13.13;;;7.67;;
41755;SDS011;27435;48.480;9.258;2022-12-20T01:26:11;17.37;;;7.60;;
41755;SDS011;27435;48.480;9.258;2022-12-20T01:28:39;13.20;;;6.77;;
41755;SDS011;27435;48.480;9.258;2022-12-20T01:31:11;13.47;;;6.47;;
41755;SDS011;27435;48.480;9.258;2022-12-20T01:33:38;9.80;;;5.83;;
41755;SDS011;27435;48.480;9.258;2022-12-20T01:36:09;11.53;;;6.03;;
41755;SDS011;27435;48.480;9.258;2022-12-20T01:38:37;10.33;;;5.67;;
41755;SDS011;27435;48.480;9.258;2022-12-20T01:41:03;12.77;;;5.07;;
41755;SDS011;27435;48.480;9.258;2022-12-20T01:46:19;9.30;;;5.10;;
41755;SDS011;27435;48.480;9.258;2022-12-20T01:48:48;10.50;;;5.20;;
41755;SDS011;27435;48.480;9.258;2022-12-20T01:53:49;13.20;;;5.55;;
41755;SDS011;27435;48.480;9.258;2022-12-20T01:56:19;8.80;;;4.37;;
41755;SDS011;27435;48.480;9.258;2022-12-20T01:58:45;8.80;;;4.73;;
41755;SDS011;27435;48.480;9.258;2022-12-20T02:01:12;7.60;;;3.83;;
41755;SDS011;27435;48.480;9.258;2022-12-20T02:03:38;4.47;;;2.73;;
41755;SDS011;27435;48.480;9.258;2022-12-20T02:06:16;6.83;;;2.83;;
41755;SDS011;27435;48.480;9.258;2022-12-20T02:08:43;6.93;;;3.27;;
41755;SDS011;27435;48.480;9.258;2022-12-20T02:16:43;7.33;;;2.50;;
41755;SDS011;27435;48.480;9.258;2022-12-20T02:22:03;5.87;;;2.70;;
41755;SDS011;27435;48.480;9.258;2022-12-20T02:24:55;5.37;;;2.60;;
41755;SDS011;27435;48.480;9.258;2022-12-20T02:27:40;7.50;;;2.67;;
41755;SDS011;27435;48.480;9.258;2022-12-20T02:30:13;6.20;;;2.57;;
41755;SDS011;27435;48.480;9.258;2022-12-20T02:32:51;7.40;;;3.03;;
41755;SDS011;27435;48.480;9.258;2022-12-20T02:35:27;5.97;;;2.57;;
41755;SDS011;27435;48.480;9.258;2022-12-20T02:37:57;4.63;;;2.03;;
41755;SDS011;27435;48.480;9.258;2022-12-20T02:40:26;6.27;;;2.63;;
41755;SDS011;27435;48.480;9.258;2022-12-20T02:42:56;9.33;;;2.63;;
41755;SDS011;27435;48.480;9.258;2022-12-20T02:45:25;5.87;;;3.03;;
41755;SDS011;27435;48.480;9.258;2022-12-20T02:48:07;5.63;;;2.57;;
41755;SDS011;27435;48.480;9.258;2022-12-20T02:50:43;5.30;;;3.03;;
41755;SDS011;27435;48.480;9.258;2022-12-20T02:53:12;4.20;;;2.30;;
41755;SDS011;27435;48.480;9.258;2022-12-20T02:55:45;5.23;;;2.87;;
41755;SDS011;27435;48.480;9.258;2022-12-20T02:58:23;7.67;;;3.40;;
41755;SDS011;27435;48.480;9.258;2022-12-20T03:03:20;5.83;;;2.70;;
41755;SDS011;27435;48.480;9.258;2022-12-20T03:05:47;4.57;;;2.63;;
41755;SDS011;27435;48.480;9.258;2022-12-20T03:08:18;4.97;;;2.17;;
41755;SDS011;27435;48.480;9.258;2022-12-20T03:10:45;5.27;;;2.63;;
41755;SDS011;27435;48.480;9.258;2022-12-20T03:13:11;4.93;;;2.67;;
41755;SDS011;27435;48.480;9.258;2022-12-20T03:15:37;6.67;;;3.13;;
41755;SDS011;27435;48.480;9.258;2022-12-20T03:18:02;6.47;;;2.87;;
41755;SDS011;27435;48.480;9.258;2022-12-20T03:20:28;6.43;;;3.13;;
41755;SDS011;27435;48.480;9.258;2022-12-20T03:22:54;6.63;;;2.90;;
41755;SDS011;27435;48.480;9.258;2022-12-20T03:25:22;6.97;;;3.60;;
41755;SDS011;27435;48.480;9.258;2022-12-20T03:27:48;6.50;;;3.13;;
41755;SDS011;27435;48.480;9.258;2022-12-20T03:30:13;6.20;;;3.20;;
41755;SDS011;27435;48.480;9.258;2022-12-20T03:32:39;8.73;;;3.07;;
41755;SDS011;27435;48.480;9.258;2022-12-20T03:35:05;5.13;;;2.77;;
41755;SDS011;27435;48.480;9.258;2022-12-20T03:37:31;5.10;;;2.77;;
41755;SDS011;27435;48.480;9.258;2022-12-20T03:39:57;6.17;;;2.73;;
41755;SDS011;27435;48.480;9.258;2022-12-20T03:42:22;5.87;;;2.80;;
41755;SDS011;27435;48.480;9.258;2022-12-20T03:44:48;6.60;;;3.33;;
41755;SDS011;27435;48.480;9.258;2022-12-20T03:47:13;6.13;;;3.43;;
41755;SDS011;27435;48.480;9.258;2022-12-20T03:49:39;5.03;;;2.80;;
41755;SDS011;27435;48.480;9.258;2022-12-20T03:52:05;7.53;;;3.90;;
41755;SDS011;27435;48.480;9.258;2022-12-20T03:54:31;7.23;;;3.67;;
41755;SDS011;27435;48.480;9.258;2022-12-20T03:56:56;5.50;;;3.23;;
41755;SDS011;27435;48.480;9.258;2022-12-20T03:59:22;7.57;;;3.30;;
41755;SDS011;27435;48.480;9.258;2022-12-20T04:01:48;7.13;;;3.47;;
41755;SDS011;27435;48.480;9.258;2022-12-20T04:04:13;8.67;;;3.87;;
41755;SDS011;27435;48.480;9.258;2022-12-20T04:06:40;11.00;;;3.87;;
41755;SDS011;27435;48.480;9.258;2022-12-20T04:09:05;5.97;;;2.83;;
41755;SDS011;27435;48.480;9.258;2022-12-20T04:11:31;5.40;;;2.77;;
41755;SDS011;27435;48.480;9.258;2022-12-20T04:13:57;5.07;;;2.57;;
41755;SDS011;27435;48.480;9.258;2022-12-20T04:16:23;6.63;;;3.07;;
41755;SDS011;27435;48.480;9.258;2022-12-20T04:18:51;7.43;;;2.70;;
41755;SDS011;27435;48.480;9.258;2022-12-20T04:21:21;9.13;;;2.83;;
41755;SDS011;27435;48.480;9.258;2022-12-20T04:23:48;5.70;;;2.83;;
41755;SDS011;27435;48.480;9.258;2022-12-20T04:26:13;4.83;;;2.97;;
41755;SDS011;27435;48.480;9.258;2022-12-20T04:28:39;8.57;;;3.10;;
41755;SDS011;27435;48.480;9.258;2022-12-20T04:31:04;4.93;;;2.40;;
41755;SDS011;27435;48.480;9.258;2022-12-20T04:33:30;5.87;;;3.07;;
41755;SDS011;27435;48.480;9.258;2022-12-20T04:35:56;10.70;;;2.97;;
41755;SDS011;27435;48.480;9.258;2022-12-20T04:38:22;6.97;;;3.10;;
41755;SDS011;27435;48.480;9.258;2022-12-20T04:40:48;6.17;;;2.87;;
41755;SDS011;27435;48.480;9.258;2022-12-20T04:43:15;7.73;;;3.00;;
41755;SDS011;27435;48.480;9.258;2022-12-20T04:45:41;9.50;;;3.63;;
41755;SDS011;27435;48.480;9.258;2022-12-20T04:48:08;5.33;;;3.07;;
41755;SDS011;27435;48.480;9.258;2022-12-20T04:50:34;6.50;;;2.83;;
41755;SDS011;27435;48.480;9.258;2022-12-20T04:52:59;7.60;;;3.93;;
41755;SDS011;27435;48.480;9.258;2022-12-20T04:55:44;5.97;;;3.23;;
41755;SDS011;27435;48.480;9.258;2022-12-20T04:58:09;6.47;;;3.73;;
41755;SDS011;27435;48.480;9.258;2022-12-20T05:00:35;7.07;;;3.03;;
41755;SDS011;27435;48.480;9.258;2022-12-20T05:03:00;6.47;;;3.47;;
41755;SDS011;27435;48.480;9.258;2022-12-20T05:05:26;8.53;;;3.53;;
41755;SDS011;27435;48.480;9.258;2022-12-20T05:07:52;9.63;;;3.67;;
41755;SDS011;27435;48.480;9.258;2022-12-20T05:10:19;7.37;;;3.30;;
41755;SDS011;27435;48.480;9.258;2022-12-20T05:12:44;7.13;;;3.57;;
41755;SDS011;27435;48.480;9.258;2022-12-20T05:15:10;8.57;;;4.33;;
41755;SDS011;27435;48.480;9.258;2022-12-20T05:17:36;11.43;;;4.30;;
41755;SDS011;27435;48.480;9.258;2022-12-20T05:20:02;7.87;;;4.27;;
41755;SDS011;27435;48.480;9.258;2022-12-20T05:22:29;7.87;;;4.47;;
41755;SDS011;27435;48.480;9.258;2022-12-20T05:25:13;7.40;;;4.40;;
41755;SDS011;27435;48.480;9.258;2022-12-20T05:27:57;9.07;;;4.60;;
41755;SDS011;27435;48.480;9.258;2022-12-20T05:30:23;16.33;;;5.43;;
41755;SDS011;27435;48.480;9.258;2022-12-20T05:32:50;7.47;;;3.97;;
41755;SDS011;27435;48.480;9.258;2022-12-20T05:35:15;9.17;;;4.83;;
41755;SDS011;27435;48.480;9.258;2022-12-20T05:37:41;7.77;;;4.23;;
41755;SDS011;27435;48.480;9.258;2022-12-20T05:40:07;8.57;;;4.53;;
41755;SDS011;27435;48.480;9.258;2022-12-20T05:42:33;5.60;;;3.53;;
41755;SDS011;27435;48.480;9.258;2022-12-20T05:44:59;7.13;;;3.57;;
41755;SDS011;27435;48.480;9.258;2022-12-20T05:47:27;9.63;;;4.10;;
41755;SDS011;27435;48.480;9.258;2022-12-20T05:49:57;8.70;;;4.00;;
41755;SDS011;27435;48.480;9.258;2022-12-20T05:52:26;8.87;;;4.67;;
41755;SDS011;27435;48.480;9.258;2022-12-20T05:54:51;8.03;;;4.50;;
41755;SDS011;27435;48.480;9.258;2022-12-20T05:57:17;8.80;;;4.30;;
41755;SDS011;27435;48.480;9.258;2022-12-20T05:59:43;10.90;;;4.87;;
41755;SDS011;27435;48.480;9.258;2022-12-20T06:02:09;7.00;;;4.07;;
41755;SDS011;27435;48.480;9.258;2022-12-20T06:04:35;8.40;;;4.30;;
41755;SDS011;27435;48.480;9.258;2022-12-20T06:07:02;9.67;;;4.63;;
41755;SDS011;27435;48.480;9.258;2022-12-20T06:09:29;9.17;;;4.17;;
41755;SDS011;27435;48.480;9.258;2022-12-20T06:11:55;10.00;;;3.90;;
41755;SDS011;27435;48.480;9.258;2022-12-20T06:14:21;6.87;;;4.27;;
41755;SDS011;27435;48.480;9.258;2022-12-20T06:16:47;7.23;;;4.23;;
41755;SDS011;27435;48.480;9.258;2022-12-20T06:19:12;10.57;;;4.50;;
41755;SDS011;27435;48.480;9.258;2022-12-20T06:21:38;7.80;;;4.20;;
41755;SDS011;27435;48.480;9.258;2022-12-20T06:24:04;7.93;;;4.53;;
41755;SDS011;27435;48.480;9.258;2022-12-20T06:26:30;7.83;;;3.93;;
41755;SDS011;27435;48.480;9.258;2022-12-20T06:29:00;9.10;;;4.57;;
41755;SDS011;27435;48.480;9.258;2022-12-20T06:31:31;8.37;;;4.03;;
41755;SDS011;27435;48.480;9.258;2022-12-20T06:33:57;9.30;;;4.60;;
41755;SDS011;27435;48.480;9.258;2022-12-20T06:36:22;8.17;;;4.23;;
41755;SDS011;27435;48.480;9.258;2022-12-20T06:38:48;8.10;;;3.90;;
41755;SDS011;27435;48.480;9.258;2022-12-20T06:41:14;8.80;;;4.67;;
41755;SDS011;27435;48.480;9.258;2022-12-20T06:43:40;12.03;;;4.27;;
41755;SDS011;27435;48.480;9.258;2022-12-20T06:46:05;6.83;;;4.17;;
41755;SDS011;27435;48.480;9.258;2022-12-20T06:48:31;7.33;;;4.40;;
41755;SDS011;27435;48.480;9.258;2022-12-20T06:50:57;8.13;;;3.97;;
41755;SDS011;27435;48.480;9.258;2022-12-20T06:53:22;7.43;;;4.20;;
41755;SDS011;27435;48.480;9.258;2022-12-20T06:55:49;7.50;;;4.10;;
41755;SDS011;27435;48.480;9.258;2022-12-20T06:58:16;11.90;;;6.10;;
41755;SDS011;27435;48.480;9.258;2022-12-20T07:00:42;11.07;;;5.47;;
41755;SDS011;27435;48.480;9.258;2022-12-20T07:03:08;11.73;;;6.87;;
41755;SDS011;27435;48.480;9.258;2022-12-20T07:05:33;13.70;;;6.83;;
41755;SDS011;27435;48.480;9.258;2022-12-20T07:07:59;11.83;;;6.60;;
41755;SDS011;27435;48.480;9.258;2022-12-20T07:10:26;12.00;;;6.60;;
41755;SDS011;27435;48.480;9.258;2022-12-20T07:12:52;11.60;;;6.73;;
41755;SDS011;27435;48.480;9.258;2022-12-20T07:15:18;11.30;;;5.77;;
41755;SDS011;27435;48.480;9.258;2022-12-20T07:17:43;12.63;;;6.13;;
41755;SDS011;27435;48.480;9.258;2022-12-20T07:20:09;15.20;;;6.70;;
41755;SDS011;27435;48.480;9.258;2022-12-20T07:22:36;14.00;;;7.10;;
41755;SDS011;27435;48.480;9.258;2022-12-20T07:25:01;14.37;;;7.87;;
41755;SDS011;27435;48.480;9.258;2022-12-20T07:27:28;12.57;;;7.60;;
41755;SDS011;27435;48.480;9.258;2022-12-20T07:29:53;11.77;;;6.80;;
41755;SDS011;27435;48.480;9.258;2022-12-20T07:32:19;12.33;;;7.43;;
41755;SDS011;27435;48.480;9.258;2022-12-20T07:34:44;15.17;;;6.93;;
41755;SDS011;27435;48.480;9.258;2022-12-20T07:37:10;14.60;;;7.73;;
41755;SDS011;27435;48.480;9.258;2022-12-20T07:39:36;15.27;;;7.00;;
41755;SDS011;27435;48.480;9.258;2022-12-20T07:42:01;11.23;;;6.47;;
41755;SDS011;27435;48.480;9.258;2022-12-20T07:44:27;11.80;;;6.97;;
41755;SDS011;27435;48.480;9.258;2022-12-20T07:46:53;11.70;;;6.90;;
41755;SDS011;27435;48.480;9.258;2022-12-20T07:49:18;11.90;;;6.27;;
41755;SDS011;27435;48.480;9.258;2022-12-20T07:51:47;11.70;;;6.07;;
41755;SDS011;27435;48.480;9.258;2022-12-20T07:54:17;14.93;;;6.87;;
41755;SDS011;27435;48.480;9.258;2022-12-20T07:56:47;10.73;;;6.63;;
41755;SDS011;27435;48.480;9.258;2022-12-20T07:59:18;14.63;;;7.00;;
41755;SDS011;27435;48.480;9.258;2022-12-20T08:01:47;12.67;;;6.73;;
41755;SDS011;27435;48.480;9.258;2022-12-20T08:04:14;12.87;;;7.23;;
41755;SDS011;27435;48.480;9.258;2022-12-20T08:06:47;11.10;;;6.10;;
41755;SDS011;27435;48.480;9.258;2022-12-20T08:09:14;11.03;;;6.23;;
41755;SDS011;27435;48.480;9.258;2022-12-20T08:11:42;14.27;;;6.37;;
41755;SDS011;27435;48.480;9.258;2022-12-20T08:14:10;11.53;;;6.63;;
41755;SDS011;27435;48.480;9.258;2022-12-20T08:16:36;11.50;;;6.40;;
41755;SDS011;27435;48.480;9.258;2022-12-20T08:19:02;11.77;;;6.30;;
41755;SDS011;27435;48.480;9.258;2022-12-20T08:21:28;13.50;;;6.33;;
41755;SDS011;27435;48.480;9.258;2022-12-20T08:23:54;14.50;;;6.83;;
41755;SDS011;27435;48.480;9.258;2022-12-20T08:26:20;12.97;;;7.03;;
41755;SDS011;27435;48.480;9.258;2022-12-20T08:28:46;11.77;;;6.47;;
41755;SDS011;27435;48.480;9.258;2022-12-20T08:31:12;13.57;;;7.40;;
41755;SDS011;27435;48.480;9.258;2022-12-20T08:33:38;14.70;;;6.93;;
41755;SDS011;27435;48.480;9.258;2022-12-20T08:36:06;16.57;;;7.17;;
41755;SDS011;27435;48.480;9.258;2022-12-20T08:38:33;22.57;;;12.87;;
41755;SDS011;27435;48.480;9.258;2022-12-20T08:41:03;23.40;;;11.63;;
41755;SDS011;27435;48.480;9.258;2022-12-20T08:43:37;11.33;;;6.47;;
41755;SDS011;27435;48.480;9.258;2022-12-20T08:46:04;15.83;;;7.87;;
41755;SDS011;27435;48.480;9.258;2022-12-20T08:48:31;12.47;;;6.43;;
41755;SDS011;27435;48.480;9.258;2022-12-20T08:50:59;12.40;;;6.27;;
41755;SDS011;27435;48.480;9.258;2022-12-20T08:53:27;11.00;;;4.90;;
41755;SDS011;27435;48.480;9.258;2022-12-20T08:55:53;9.63;;;5.57;;
41755;SDS011;27435;48.480;9.258;2022-12-20T08:58:20;10.87;;;6.07;;
41755;SDS011;27435;48.480;9.258;2022-12-20T09:00:45;12.97;;;6.10;;
41755;SDS011;27435;48.480;9.258;2022-12-20T09:03:11;12.87;;;6.70;;
41755;SDS011;27435;48.480;9.258;2022-12-20T09:05:47;16.40;;;8.87;;
41755;SDS011;27435;48.480;9.258;2022-12-20T09:08:13;12.50;;;7.03;;
41755;SDS011;27435;48.480;9.258;2022-12-20T09:10:41;21.20;;;12.07;;
41755;SDS011;27435;48.480;9.258;2022-12-20T09:13:07;19.53;;;10.73;;
41755;SDS011;27435;48.480;9.258;2022-12-20T09:15:34;21.67;;;12.20;;
41755;SDS011;27435;48.480;9.258;2022-12-20T09:18:00;22.30;;;12.53;;
41755;SDS011;27435;48.480;9.258;2022-12-20T09:20:26;20.03;;;11.60;;
41755;SDS011;27435;48.480;9.258;2022-12-20T09:22:53;16.00;;;7.97;;
41755;SDS011;27435;48.480;9.258;2022-12-20T09:25:18;11.83;;;5.10;;
41755;SDS011;27435;48.480;9.258;2022-12-20T09:27:44;6.03;;;2.80;;
41755;SDS011;27435;48.480;9.258;2022-12-20T09:30:10;6.60;;;2.87;;
41755;SDS011;27435;48.480;9.258;2022-12-20T09:32:36;5.83;;;2.43;;
41755;SDS011;27435;48.480;9.258;2022-12-20T09:35:02;5.00;;;2.50;;
41755;SDS011;27435;48.480;9.258;2022-12-20T09:37:29;7.80;;;2.77;;
41755;SDS011;27435;48.480;9.258;2022-12-20T09:39:55;6.20;;;3.13;;
41755;SDS011;27435;48.480;9.258;2022-12-20T09:42:21;5.53;;;2.57;;
41755;SDS011;27435;48.480;9.258;2022-12-20T09:44:50;4.93;;;2.40;;
41755;SDS011;27435;48.480;9.258;2022-12-20T09:47:18;4.60;;;2.40;;
41755;SDS011;27435;48.480;9.258;2022-12-20T09:49:47;5.83;;;2.30;;
41755;SDS011;27435;48.480;9.258;2022-12-20T09:57:29;6.20;;;2.10;;
41755;SDS011;27435;48.480;9.258;2022-12-20T10:00:16;4.97;;;1.90;;
41755;SDS011;27435;48.480;9.258;2022-12-20T10:02:43;4.43;;;2.30;;
41755;SDS011;27435;48.480;9.258;2022-12-20T10:16:38;4.10;;;1.83;;
41755;SDS011;27435;48.480;9.258;2022-12-20T10:24:30;4.27;;;1.70;;
41755;SDS011;27435;48.480;9.258;2022-12-20T10:27:01;3.83;;;1.80;;
41755;SDS011;27435;48.480;9.258;2022-12-20T10:29:39;4.87;;;2.27;;
41755;SDS011;27435;48.480;9.258;2022-12-20T10:32:09;4.40;;;1.97;;
41755;SDS011;27435;48.480;9.258;2022-12-20T10:34:45;3.40;;;1.90;;
41755;SDS011;27435;48.480;9.258;2022-12-20T10:37:15;6.67;;;1.83;;
41755;SDS011;27435;48.480;9.258;2022-12-20T10:39:41;5.70;;;2.20;;
41755;SDS011;27435;48.480;9.258;2022-12-20T10:44:58;9.30;;;2.10;;
41755;SDS011;27435;48.480;9.258;2022-12-20T10:47:34;4.77;;;1.80;;
41755;SDS011;27435;48.480;9.258;2022-12-20T10:50:12;4.10;;;2.23;;
41755;SDS011;27435;48.480;9.258;2022-12-20T10:53:01;12.10;;;3.87;;
41755;SDS011;27435;48.480;9.258;2022-12-20T10:55:38;5.63;;;2.57;;
41755;SDS011;27435;48.480;9.258;2022-12-20T10:58:12;5.40;;;2.40;;
41755;SDS011;27435;48.480;9.258;2022-12-20T11:00:41;4.43;;;1.80;;
41755;SDS011;27435;48.480;9.258;2022-12-20T11:05:55;6.43;;;1.97;;
41755;SDS011;27435;48.480;9.258;2022-12-20T11:08:21;7.17;;;2.47;;
41755;SDS011;27435;48.480;9.258;2022-12-20T11:10:48;3.87;;;1.73;;
41755;SDS011;27435;48.480;9.258;2022-12-20T11:13:19;12.20;;;5.37;;
41755;SDS011;27435;48.480;9.258;2022-12-20T11:15:48;12.63;;;5.30;;
41755;SDS011;27435;48.480;9.258;2022-12-20T11:18:19;12.77;;;6.00;;
41755;SDS011;27435;48.480;9.258;2022-12-20T11:23:59;15.53;;;8.07;;
41755;SDS011;27435;48.480;9.258;2022-12-20T11:37:19;10.33;;;5.63;;
41755;SDS011;27435;48.480;9.258;2022-12-20T11:40:03;13.10;;;5.83;;
41755;SDS011;27435;48.480;9.258;2022-12-20T11:45:38;17.23;;;8.10;;
41755;SDS011;27435;48.480;9.258;2022-12-20T11:48:16;12.25;;;6.70;;
41755;SDS011;27435;48.480;9.258;2022-12-20T11:53:43;9.80;;;5.67;;
41755;SDS011;27435;48.480;9.258;2022-12-20T11:56:17;10.00;;;5.57;;
41755;SDS011;27435;48.480;9.258;2022-12-20T12:01:44;11.23;;;5.77;;
41755;SDS011;27435;48.480;9.258;2022-12-20T12:04:18;13.23;;;6.87;;
41755;SDS011;27435;48.480;9.258;2022-12-20T12:09:37;13.97;;;7.40;;
41755;SDS011;27435;48.480;9.258;2022-12-20T12:12:22;26.57;;;11.70;;
41755;SDS011;27435;48.480;9.258;2022-12-20T12:23:15;10.77;;;7.17;;
41755;SDS011;27435;48.480;9.258;2022-12-20T12:26:04;16.80;;;7.00;;
41755;SDS011;27435;48.480;9.258;2022-12-20T12:28:34;17.40;;;8.47;;
41755;SDS011;27435;48.480;9.258;2022-12-20T12:31:03;13.03;;;7.27;;
41755;SDS011;27435;48.480;9.258;2022-12-20T12:33:45;15.23;;;7.70;;
41755;SDS011;27435;48.480;9.258;2022-12-20T12:46:58;14.13;;;7.73;;
41755;SDS011;27435;48.480;9.258;2022-12-20T12:49:39;16.03;;;8.97;;
41755;SDS011;27435;48.480;9.258;2022-12-20T12:52:06;14.33;;;7.97;;
41755;SDS011;27435;48.480;9.258;2022-12-20T12:59:44;12.27;;;4.67;;
41755;SDS011;27435;48.480;9.258;2022-12-20T13:16:05;3.70;;;1.87;;
41755;SDS011;27435;48.480;9.258;2022-12-20T13:25:32;2.43;;;1.57;;
41755;SDS011;27435;48.480;9.258;2022-12-20T13:30:40;4.18;;;2.00;;
41755;SDS011;27435;48.480;9.258;2022-12-20T13:33:20;8.13;;;2.00;;
41755;SDS011;27435;48.480;9.258;2022-12-20T13:35:58;3.37;;;1.70;;
41755;SDS011;27435;48.480;9.258;2022-12-20T13:41:01;4.93;;;2.10;;
41755;SDS011;27435;48.480;9.258;2022-12-20T13:43:35;6.30;;;1.77;;
41755;SDS011;27435;48.480;9.258;2022-12-20T13:51:02;3.47;;;1.70;;
41755;SDS011;27435;48.480;9.258;2022-12-20T13:53:28;2.87;;;1.60;;
41755;SDS011;27435;48.480;9.258;2022-12-20T13:55:55;7.70;;;2.00;;
41755;SDS011;27435;48.480;9.258;2022-12-20T13:58:24;3.63;;;1.70;;
41755;SDS011;27435;48.480;9.258;2022-12-20T14:00:52;5.07;;;2.33;;
41755;SDS011;27435;48.480;9.258;2022-12-20T14:03:27;3.85;;;1.85;;
41755;SDS011;27435;48.480;9.258;2022-12-20T14:05:58;4.90;;;2.10;;
41755;SDS011;27435;48.480;9.258;2022-12-20T14:08:28;6.20;;;1.90;;
41755;SDS011;27435;48.480;9.258;2022-12-20T14:13:53;4.67;;;1.97;;
41755;SDS011;27435;48.480;9.258;2022-12-20T14:16:27;3.27;;;1.73;;
41755;SDS011;27435;48.480;9.258;2022-12-20T14:19:02;5.63;;;1.90;;
41755;SDS011;27435;48.480;9.258;2022-12-20T14:21:29;3.20;;;1.80;;
41755;SDS011;27435;48.480;9.258;2022-12-20T14:23:57;4.03;;;1.77;;
41755;SDS011;27435;48.480;9.258;2022-12-20T14:26:44;2.80;;;1.50;;
41755;SDS011;27435;48.480;9.258;2022-12-20T14:29:15;5.27;;;1.50;;
41755;SDS011;27435;48.480;9.258;2022-12-20T14:31:44;4.97;;;1.80;;
41755;SDS011;27435;48.480;9.258;2022-12-20T14:34:20;4.93;;;1.97;;
41755;SDS011;27435;48.480;9.258;2022-12-20T14:36:54;3.20;;;1.90;;
41755;SDS011;27435;48.480;9.258;2022-12-20T14:39:55;6.17;;;2.10;;
41755;SDS011;27435;48.480;9.258;2022-12-20T14:42:39;3.43;;;1.73;;
41755;SDS011;27435;48.480;9.258;2022-12-20T14:47:34;4.53;;;1.97;;
41755;SDS011;27435;48.480;9.258;2022-12-20T14:50:02;5.63;;;2.10;;
41755;SDS011;27435;48.480;9.258;2022-12-20T14:54:57;5.53;;;2.00;;
41755;SDS011;27435;48.480;9.258;2022-12-20T14:57:30;4.47;;;2.20;;
41755;SDS011;27435;48.480;9.258;2022-12-20T15:08:15;4.55;;;2.22;;
41755;SDS011;27435;48.480;9.258;2022-12-20T15:10:47;5.03;;;2.23;;
41755;SDS011;27435;48.480;9.258;2022-12-20T15:13:14;3.97;;;2.10;;
41755;SDS011;27435;48.480;9.258;2022-12-20T15:15:40;4.17;;;2.00;;
41755;SDS011;27435;48.480;9.258;2022-12-20T15:18:13;5.33;;;2.50;;
41755;SDS011;27435;48.480;9.258;2022-12-20T15:20:40;3.57;;;2.13;;
41755;SDS011;27435;48.480;9.258;2022-12-20T15:23:20;7.03;;;2.73;;
41755;SDS011;27435;48.480;9.258;2022-12-20T15:25:46;4.13;;;2.17;;
41755;SDS011;27435;48.480;9.258;2022-12-20T15:28:18;5.30;;;2.47;;
41755;SDS011;27435;48.480;9.258;2022-12-20T15:30:48;5.30;;;1.97;;
41755;SDS011;27435;48.480;9.258;2022-12-20T15:33:16;7.07;;;1.90;;
41755;SDS011;27435;48.480;9.258;2022-12-20T15:35:45;3.67;;;2.07;;
41755;SDS011;27435;48.480;9.258;2022-12-20T15:38:15;4.63;;;1.90;;
41755;SDS011;27435;48.480;9.258;2022-12-20T15:40:46;4.23;;;1.90;;
41755;SDS011;27435;48.480;9.258;2022-12-20T15:43:14;4.07;;;1.87;;
41755;SDS011;27435;48.480;9.258;2022-12-20T15:45:42;5.93;;;2.80;;
41755;SDS011;27435;48.480;9.258;2022-12-20T15:48:14;3.97;;;1.87;;
41755;SDS011;27435;48.480;9.258;2022-12-20T15:50:43;4.33;;;2.10;;
41755;SDS011;27435;48.480;9.258;2022-12-20T15:53:14;4.13;;;2.10;;
41755;SDS011;27435;48.480;9.258;2022-12-20T15:55:41;4.17;;;2.07;;
41755;SDS011;27435;48.480;9.258;2022-12-20T15:58:08;4.27;;;2.17;;
41755;SDS011;27435;48.480;9.258;2022-12-20T16:00:35;3.10;;;1.80;;
41755;SDS011;27435;48.480;9.258;2022-12-20T16:03:04;4.90;;;2.30;;
41755;SDS011;27435;48.480;9.258;2022-12-20T16:05:32;3.37;;;2.03;;
41755;SDS011;27435;48.480;9.258;2022-12-20T16:07:59;4.80;;;2.13;;
41755;SDS011;27435;48.480;9.258;2022-12-20T16:10:25;4.47;;;2.03;;
41755;SDS011;27435;48.480;9.258;2022-12-20T16:12:50;5.50;;;2.20;;
41755;SDS011;27435;48.480;9.258;2022-12-20T16:15:18;7.87;;;2.27;;
41755;SDS011;27435;48.480;9.258;2022-12-20T16:17:45;5.13;;;2.40;;
41755;SDS011;27435;48.480;9.258;2022-12-20T16:20:11;4.33;;;1.97;;
41755;SDS011;27435;48.480;9.258;2022-12-20T16:22:37;3.97;;;1.90;;
41755;SDS011;27435;48.480;9.258;2022-12-20T16:25:02;5.07;;;2.00;;
41755;SDS011;27435;48.480;9.258;2022-12-20T16:27:28;4.20;;;2.20;;
41755;SDS011;27435;48.480;9.258;2022-12-20T16:29:54;6.70;;;2.63;;
41755;SDS011;27435;48.480;9.258;2022-12-20T16:32:19;8.27;;;2.10;;
41755;SDS011;27435;48.480;9.258;2022-12-20T16:34:45;3.73;;;1.90;;
41755;SDS011;27435;48.480;9.258;2022-12-20T16:37:13;4.10;;;1.80;;
41755;SDS011;27435;48.480;9.258;2022-12-20T16:39:39;4.63;;;1.90;;
41755;SDS011;27435;48.480;9.258;2022-12-20T16:42:10;5.67;;;1.97;;
41755;SDS011;27435;48.480;9.258;2022-12-20T16:44:39;5.13;;;2.70;;
41755;SDS011;27435;48.480;9.258;2022-12-20T16:47:08;5.20;;;3.00;;
41755;SDS011;27435;48.480;9.258;2022-12-20T16:49:34;4.73;;;2.47;;
41755;SDS011;27435;48.480;9.258;2022-12-20T16:52:00;4.80;;;2.87;;
41755;SDS011;27435;48.480;9.258;2022-12-20T16:54:28;5.97;;;3.60;;
41755;SDS011;27435;48.480;9.258;2022-12-20T16:56:54;10.23;;;5.43;;
41755;SDS011;27435;48.480;9.258;2022-12-20T16:59:23;12.57;;;6.30;;
41755;SDS011;27435;48.480;9.258;2022-12-20T17:01:53;14.03;;;6.93;;
41755;SDS011;27435;48.480;9.258;2022-12-20T17:04:20;24.23;;;12.23;;
41755;SDS011;27435;48.480;9.258;2022-12-20T17:06:47;13.43;;;7.17;;
41755;SDS011;27435;48.480;9.258;2022-12-20T17:09:12;26.87;;;12.50;;